createdAt,value
2023-03-29T00:00:41.080Z,77.35
2023-03-29T00:01:41.006Z,75.29
2023-03-29T00:02:41.135Z,79.30
2023-03-29T00:03:41.104Z,77.66
2023-03-29T00:04:41.049Z,76.53
2023-03-29T00:05:40.986Z,80.02
2023-03-29T00:06:41.012Z,80.75
2023-03-29T00:07:40.975Z,79.00
2023-03-29T00:08:40.981Z,78.58
2023-03-29T00:09:40.929Z,78.17
2023-03-29T00:10:40.931Z,78.52
2023-03-29T00:11:40.915Z,79.41
2023-03-29T00:12:40.936Z,78.00
2023-03-29T00:13:40.917Z,80.02
2023-03-29T00:14:40.934Z,78.00
2023-03-29T00:15:40.873Z,78.11
2023-03-29T00:16:40.927Z,77.69
2023-03-29T00:17:40.865Z,75.94
2023-03-29T00:18:40.860Z,79.24
2023-03-29T00:19:40.818Z,79.65
2023-03-29T00:20:40.837Z,81.81
2023-03-29T00:21:40.810Z,79.65
2023-03-29T00:22:40.797Z,80.68
2023-03-29T00:23:40.789Z,76.15
2023-03-29T00:24:40.786Z,75.84
2023-03-29T00:25:40.747Z,75.94
2023-03-29T00:26:40.769Z,76.15
2023-03-29T00:27:40.749Z,75.12
2023-03-29T00:28:40.915Z,77.38
2023-03-29T00:29:40.747Z,79.65
2023-03-29T00:30:40.732Z,77.38
2023-03-29T00:31:40.738Z,77.08
2023-03-29T00:32:40.749Z,76.35
2023-03-29T00:33:40.673Z,79.55
2023-03-29T00:34:40.665Z,76.66
2023-03-29T00:35:40.693Z,76.46
2023-03-29T00:36:40.686Z,78.21
2023-03-29T00:37:40.631Z,77.18
2023-03-29T00:38:40.622Z,76.15
2023-03-29T00:39:40.639Z,76.66
2023-03-29T00:40:40.601Z,76.87
2023-03-29T00:41:40.577Z,76.56
2023-03-29T00:42:40.600Z,81.40
2023-03-29T00:43:40.602Z,80.68
2023-03-29T00:44:40.551Z,78.11
2023-03-29T00:45:40.530Z,78.93
2023-03-29T00:46:40.631Z,78.11
2023-03-29T00:47:40.515Z,79.75
2023-03-29T00:48:40.517Z,80.27
2023-03-29T00:49:40.511Z,77.18
2023-03-29T00:50:40.489Z,79.96
2023-03-29T00:51:40.467Z,75.53
2023-03-29T00:52:40.533Z,77.08
2023-03-29T00:53:40.447Z,76.25
2023-03-29T00:54:40.445Z,76.35
2023-03-29T00:55:40.438Z,76.76
2023-03-29T00:56:40.592Z,78.21
2023-03-29T00:57:40.446Z,77.28
2023-03-29T00:58:40.415Z,76.76
2023-03-29T00:59:40.397Z,75.53
2023-03-29T01:00:40.417Z,78.41
2023-03-29T01:01:40.382Z,75.73
2023-03-29T01:02:40.555Z,77.28
2023-03-29T01:03:40.390Z,77.69
2023-03-29T01:04:40.354Z,76.35
2023-03-29T01:05:40.331Z,76.15
2023-03-29T01:06:40.349Z,76.97
2023-03-29T01:07:40.346Z,79.03
2023-03-29T01:08:40.294Z,76.46
2023-03-29T01:09:47.128Z,77.38
2023-03-29T01:10:40.269Z,77.69
2023-03-29T01:11:40.276Z,77.38
2023-03-29T01:12:40.264Z,79.14
2023-03-29T01:13:40.281Z,78.11
2023-03-29T01:14:40.257Z,79.44
2023-03-29T01:15:40.254Z,77.18
2023-03-29T01:16:40.251Z,78.41
2023-03-29T01:17:40.297Z,76.56
2023-03-29T01:18:40.206Z,80.06
2023-03-29T01:19:40.254Z,77.69
2023-03-29T01:20:40.172Z,76.25
2023-03-29T01:21:40.278Z,78.11
2023-03-29T01:22:40.150Z,78.41
2023-03-29T01:23:40.193Z,76.66
2023-03-29T01:24:40.135Z,77.28
2023-03-29T01:25:40.211Z,76.15
2023-03-29T01:26:40.106Z,77.48
2023-03-29T01:27:40.149Z,76.46
2023-03-29T01:28:40.129Z,76.04
2023-03-29T01:29:40.099Z,77.08
2023-03-29T06:00:49.361Z,80.02
2023-03-29T06:01:50.357Z,81.98
2023-03-29T06:02:50.431Z,79.51
2023-03-29T06:03:50.432Z,79.00
2023-03-29T06:04:50.315Z,80.33
2023-03-29T06:05:50.326Z,79.82
2023-03-29T06:06:50.285Z,79.72
2023-03-29T06:07:50.279Z,80.23
2023-03-29T06:08:50.264Z,79.82
2023-03-29T06:09:50.267Z,78.89
2023-03-29T06:10:50.230Z,80.51
2023-03-29T06:11:50.247Z,79.99
2023-03-29T06:12:50.240Z,78.86
2023-03-29T06:13:50.214Z,79.68
2023-03-29T06:14:50.198Z,79.88
2023-03-29T06:15:50.209Z,79.06
2023-03-29T06:16:50.215Z,79.16
2023-03-29T06:17:50.236Z,78.96
2023-03-29T06:18:50.146Z,80.91
2023-03-29T06:19:50.162Z,80.09
2023-03-29T06:20:50.143Z,81.74
2023-03-29T06:21:50.142Z,81.53
2023-03-29T06:22:50.113Z,80.09
2023-03-29T06:23:50.135Z,80.61
2023-03-29T06:24:50.083Z,80.91
2023-03-29T06:25:50.093Z,79.99
2023-03-29T06:26:50.084Z,82.67
2023-03-29T06:27:50.083Z,82.46
2023-03-29T06:28:52.206Z,82.77
2023-03-29T06:29:50.066Z,81.63
2023-03-29T06:30:50.051Z,80.30
2023-03-29T06:31:50.086Z,80.05
2023-03-29T06:32:50.059Z,83.55
2023-03-29T06:33:50.024Z,81.39
2023-03-29T06:34:49.980Z,81.12
2023-03-29T06:35:50.072Z,82.05
2023-03-29T06:36:49.985Z,81.91
2023-03-29T06:37:49.983Z,79.64
2023-03-29T06:38:49.949Z,80.47
2023-03-29T06:39:51.955Z,79.23
2023-03-29T06:40:49.945Z,78.61
2023-03-29T06:41:49.921Z,79.54
2023-03-29T06:42:49.911Z,77.48
2023-03-29T06:43:49.914Z,79.44
2023-03-29T06:44:49.897Z,80.61
2023-03-29T06:45:49.890Z,79.33
2023-03-29T06:46:49.991Z,79.23
2023-03-29T06:47:49.937Z,78.82
2023-03-29T06:48:49.840Z,80.36
2023-03-29T06:49:49.860Z,79.23
2023-03-29T06:50:49.813Z,82.11
2023-03-29T06:51:49.833Z,83.55
2023-03-29T06:52:49.921Z,80.88
2023-03-29T06:53:49.785Z,79.13
2023-03-29T06:54:49.776Z,82.11
2023-03-29T06:55:49.801Z,78.82
2023-03-29T06:56:49.790Z,77.89
2023-03-29T06:57:49.756Z,79.44
2023-03-29T06:58:49.723Z,80.57
2023-03-29T06:59:49.725Z,79.95
2023-03-29T07:00:49.711Z,80.16
2023-03-29T07:01:49.752Z,80.47
2023-03-29T07:02:49.724Z,78.99
2023-03-29T07:03:49.720Z,80.33
2023-03-29T07:04:49.728Z,79.40
2023-03-29T07:05:49.686Z,80.63
2023-03-29T07:06:49.631Z,81.15
2023-03-29T07:07:49.672Z,81.15
2023-03-29T07:08:49.605Z,77.65
2023-03-29T07:09:49.616Z,79.91
2023-03-29T07:10:49.621Z,79.50
2023-03-29T07:11:49.598Z,78.89
2023-03-29T07:12:49.604Z,78.58
2023-03-29T07:13:49.577Z,77.86
2023-03-29T07:14:49.541Z,77.75
2023-03-29T07:15:49.582Z,77.75
2023-03-29T07:16:49.546Z,78.27
2023-03-29T07:17:49.623Z,79.09
2023-03-29T07:18:49.536Z,79.19
2023-03-29T07:19:49.514Z,77.75
2023-03-29T07:20:49.534Z,77.34
2023-03-29T07:21:49.538Z,78.78
2023-03-29T07:22:49.473Z,77.96
2023-03-29T07:23:49.476Z,77.03
2023-03-29T07:24:49.441Z,78.78
2023-03-29T07:25:49.452Z,79.91
2023-03-29T07:27:03.302Z,77.96
2023-03-29T07:27:49.599Z,78.54
2023-03-29T07:28:49.399Z,80.80
2023-03-29T07:29:49.426Z,79.57
2023-03-29T07:30:49.405Z,78.13
2023-03-29T07:31:49.388Z,78.13
2023-03-29T07:32:49.427Z,77.41
2023-03-29T07:33:49.535Z,80.39
2023-03-29T07:34:49.330Z,77.41
2023-03-29T07:35:49.387Z,76.48
2023-03-29T07:36:49.312Z,77.00
2023-03-29T07:37:49.316Z,76.28
2023-03-29T07:38:49.409Z,77.72
2023-03-29T07:39:49.318Z,76.38
2023-03-29T07:40:49.276Z,78.54
2023-03-29T07:41:49.286Z,77.78
2023-03-29T07:42:49.257Z,79.43
2023-03-29T07:43:49.256Z,81.07
2023-03-29T07:44:49.223Z,78.61
2023-03-29T07:45:49.308Z,81.18
2023-03-29T07:46:49.200Z,76.97
2023-03-29T07:47:49.290Z,77.58
2023-03-29T07:48:49.173Z,77.89
2023-03-29T07:49:49.190Z,80.15
2023-03-29T07:50:49.171Z,78.09
2023-03-29T07:51:49.217Z,79.43
2023-03-29T07:52:49.159Z,79.02
2023-03-29T07:53:49.152Z,77.55
2023-03-29T07:54:49.117Z,75.52
2023-03-29T07:55:49.143Z,79.39
2023-03-29T07:56:49.118Z,77.03
2023-03-29T07:57:49.110Z,76.31
2023-03-29T07:58:49.067Z,77.23
2023-03-29T07:59:49.071Z,77.44
2023-03-29T08:00:49.136Z,75.59
2023-03-29T08:01:49.070Z,80.63
2023-03-29T08:02:49.123Z,76.82
2023-03-29T08:03:49.067Z,77.03
2023-03-29T08:04:49.034Z,76.93
2023-03-29T08:05:49.015Z,78.98
2023-03-29T08:06:48.995Z,77.61
2023-03-29T08:07:49.002Z,80.90
2023-03-29T08:08:48.989Z,76.68
2023-03-29T08:09:48.971Z,76.07
2023-03-29T08:10:48.945Z,77.92
2023-03-29T08:11:48.950Z,77.71
2023-03-29T08:12:48.948Z,75.97
2023-03-29T08:13:48.929Z,78.74
2023-03-29T08:14:48.917Z,76.79
2023-03-29T08:15:48.916Z,74.02
2023-03-29T08:16:48.897Z,80.07
2023-03-29T08:17:48.891Z,74.84
2023-03-29T08:18:48.856Z,74.84
2023-03-29T08:19:50.934Z,75.15
2023-03-29T08:20:48.866Z,75.56
2023-03-29T08:21:48.839Z,74.74
2023-03-29T08:22:48.818Z,74.22
2023-03-29T08:23:48.819Z,75.45
2023-03-29T08:24:48.797Z,73.10
2023-03-29T08:25:48.809Z,73.71
2023-03-29T08:26:48.837Z,75.66
2023-03-29T08:27:48.785Z,73.57
2023-03-29T08:28:48.750Z,73.68
2023-03-29T08:29:48.753Z,72.55
2023-03-29T08:30:48.747Z,75.01
2023-03-29T08:31:48.731Z,76.45
2023-03-29T08:32:51.067Z,74.19
2023-03-29T08:33:48.719Z,73.57
2023-03-29T08:34:48.679Z,73.78
2023-03-29T08:35:48.745Z,72.03
2023-03-29T08:36:48.684Z,72.44
2023-03-29T08:37:48.672Z,73.02
2023-03-29T08:38:48.686Z,75.18
2023-03-29T08:39:48.679Z,73.33
2023-03-29T08:40:48.619Z,71.59
2023-03-29T08:41:48.660Z,71.48
2023-03-29T08:42:48.608Z,74.36
2023-03-29T08:43:48.609Z,72.61
2023-03-29T08:44:48.612Z,73.19
2023-03-29T08:45:50.808Z,73.91
2023-03-29T08:46:48.605Z,72.07
2023-03-29T08:47:48.640Z,71.97
2023-03-29T08:48:48.541Z,71.56
2023-03-29T08:49:48.586Z,73.78
2023-03-29T08:50:48.534Z,72.44
2023-03-29T08:51:48.539Z,71.93
2023-03-29T08:52:48.504Z,71.73
2023-03-29T08:53:48.497Z,75.31
2023-03-29T08:54:48.489Z,75.01
2023-03-29T08:55:48.470Z,74.49
2023-03-29T08:56:49.197Z,74.39
2023-03-29T08:57:48.477Z,74.19
2023-03-29T08:58:48.436Z,74.05
2023-03-29T08:59:48.432Z,71.80
2023-03-29T09:00:48.400Z,72.82
2023-03-29T09:01:48.789Z,73.44
2023-03-29T09:02:48.457Z,74.26
2023-03-29T09:03:48.610Z,71.90
2023-03-29T09:04:48.362Z,73.33
2023-03-29T09:05:48.380Z,73.64
2023-03-29T09:06:48.357Z,71.69
2023-03-29T09:07:48.330Z,71.69
2023-03-29T09:08:48.357Z,71.59
2023-03-29T09:09:48.325Z,69.65
2023-03-29T09:10:48.315Z,69.24
2023-03-29T09:11:48.305Z,71.18
2023-03-29T09:12:48.318Z,70.57
2023-03-29T09:13:48.265Z,70.06
2023-03-29T09:14:48.296Z,70.57
2023-03-29T09:15:48.323Z,69.44
2023-03-29T09:16:48.257Z,69.03
2023-03-29T09:17:49.708Z,70.47
2023-03-29T09:18:48.221Z,67.97
2023-03-29T09:19:48.202Z,69.51
2023-03-29T09:20:48.210Z,70.43
2023-03-29T09:21:48.196Z,68.38
2023-03-29T09:22:48.173Z,70.74
2023-03-29T09:23:48.156Z,70.33
2023-03-29T09:24:48.164Z,71.15
2023-03-29T09:25:53.604Z,69.58
2023-03-29T09:26:48.153Z,70.61
2023-03-29T09:27:48.109Z,69.58
2023-03-29T09:28:48.110Z,71.12
2023-03-29T09:29:48.098Z,70.20
2023-03-29T09:30:48.086Z,69.38
2023-03-29T09:31:48.148Z,70.61
2023-03-29T09:32:48.147Z,70.71
2023-03-29T09:33:48.049Z,69.48
2023-03-29T09:34:48.056Z,67.13
2023-03-29T09:35:48.037Z,67.84
2023-03-29T09:36:48.056Z,69.04
2023-03-29T09:37:47.999Z,67.54
2023-03-29T09:38:48.046Z,67.50
2023-03-29T09:39:47.981Z,68.84
2023-03-29T09:40:47.980Z,68.12
2023-03-29T09:41:47.976Z,71.29
2023-03-29T09:42:47.962Z,68.52
2023-03-29T09:43:48.031Z,69.45
2023-03-29T09:44:47.939Z,71.49
2023-03-29T09:45:47.945Z,69.45
2023-03-29T09:46:47.925Z,68.32
2023-03-29T09:47:47.910Z,69.65
2023-03-29T09:48:47.894Z,66.89
2023-03-29T09:49:47.895Z,68.12
2023-03-29T09:50:47.891Z,68.32
2023-03-29T09:51:47.867Z,70.16
2023-03-29T09:52:47.936Z,68.19
2023-03-29T09:53:47.851Z,65.94
2023-03-29T09:54:47.846Z,65.22
2023-03-29T09:55:49.115Z,67.78
2023-03-29T09:56:47.859Z,65.94
2023-03-29T09:57:47.795Z,66.66
2023-03-29T09:58:47.792Z,68.70
2023-03-29T09:59:47.881Z,69.42
2023-03-29T10:00:47.852Z,65.22
2023-03-29T10:01:47.990Z,68.19
2023-03-29T10:02:47.757Z,67.98
2023-03-29T10:03:47.776Z,68.46
2023-03-29T10:04:47.752Z,67.75
2023-03-29T10:05:47.714Z,65.19
2023-03-29T10:06:47.721Z,66.42
2023-03-29T10:07:47.723Z,67.54
2023-03-29T10:08:47.685Z,66.72
2023-03-29T10:09:47.661Z,65.91
2023-03-29T10:10:47.668Z,65.67
2023-03-29T10:11:47.638Z,64.45
2023-03-29T10:12:47.680Z,65.98
2023-03-29T10:13:47.656Z,65.06
2023-03-29T10:14:47.615Z,66.18
2023-03-29T10:15:47.629Z,65.88
2023-03-29T10:16:47.730Z,68.12
2023-03-29T10:17:47.588Z,66.08
2023-03-29T10:18:47.579Z,65.06
2023-03-29T10:19:47.568Z,64.86
2023-03-29T10:20:47.550Z,65.47
2023-03-29T10:21:47.540Z,65.57
2023-03-29T10:22:47.527Z,65.34
2023-03-29T10:23:47.505Z,65.34
2023-03-29T10:24:47.529Z,66.36
2023-03-29T10:25:47.623Z,66.36
2023-03-29T10:26:47.478Z,64.83
2023-03-29T10:27:47.455Z,64.42
2023-03-29T10:28:47.465Z,63.70
2023-03-29T10:29:47.435Z,66.25
2023-03-29T10:30:47.441Z,64.11
2023-03-29T10:31:47.450Z,63.60
2023-03-29T10:32:47.462Z,63.90
2023-03-29T10:33:47.410Z,64.62
2023-03-29T10:34:47.413Z,65.41
2023-03-29T10:35:47.428Z,65.31
2023-03-29T10:36:47.373Z,64.79
2023-03-29T10:37:47.373Z,64.18
2023-03-29T10:38:47.352Z,66.42
2023-03-29T10:39:47.346Z,65.31
2023-03-29T10:40:47.550Z,63.85
2023-03-29T10:41:47.304Z,66.19
2023-03-29T10:42:47.306Z,66.19
2023-03-29T10:43:47.304Z,65.37
2023-03-29T10:44:47.287Z,63.75
2023-03-29T10:45:47.290Z,64.46
2023-03-29T10:46:47.278Z,63.95
2023-03-29T10:47:47.314Z,63.54
2023-03-29T10:48:47.265Z,65.58
2023-03-29T10:49:47.961Z,65.78
2023-03-29T10:50:47.275Z,64.46
2023-03-29T10:51:47.256Z,66.39
2023-03-29T10:52:47.266Z,66.80
2023-03-29T10:53:47.274Z,65.28
2023-03-29T10:54:47.265Z,66.39
2023-03-29T10:55:47.199Z,65.86
2023-03-29T10:56:47.298Z,68.33
2023-03-29T10:57:47.302Z,64.43
2023-03-29T10:58:47.163Z,64.43
2023-03-29T10:59:47.115Z,63.71
2023-03-29T11:00:47.114Z,63.41
2023-03-29T11:01:47.183Z,64.32
2023-03-29T11:02:47.220Z,64.12
2023-03-29T11:03:47.220Z,64.02
2023-03-29T11:04:47.070Z,63.92
2023-03-29T11:05:47.057Z,63.00
2023-03-29T11:06:47.067Z,63.18
2023-03-29T11:07:47.035Z,64.20
2023-03-29T11:08:47.035Z,62.77
2023-03-29T11:09:46.992Z,63.89
2023-03-29T11:10:47.030Z,65.52
2023-03-29T11:11:46.977Z,65.11
2023-03-29T11:12:46.989Z,63.99
2023-03-29T11:13:46.990Z,66.94
2023-03-29T11:14:46.984Z,62.46
2023-03-29T11:15:46.948Z,64.20
2023-03-29T11:16:46.951Z,63.07
2023-03-29T11:17:46.986Z,64.81
2023-03-29T11:18:46.927Z,64.37
2023-03-29T11:19:46.919Z,62.02
2023-03-29T11:20:46.928Z,64.87
2023-03-29T11:21:46.865Z,64.06
2023-03-29T11:22:46.875Z,62.94
2023-03-29T11:23:46.853Z,65.59
2023-03-29T11:24:46.873Z,65.25
2023-03-29T11:25:46.827Z,62.51
2023-03-29T11:26:46.855Z,65.46
2023-03-29T11:27:46.811Z,63.73
2023-03-29T11:28:46.891Z,65.63
2023-03-29T11:29:46.796Z,62.07
2023-03-29T11:30:46.813Z,62.27
2023-03-29T11:31:46.794Z,62.17
2023-03-29T11:32:46.778Z,62.58
2023-03-29T11:33:46.753Z,61.46
2023-03-29T11:34:46.752Z,61.94
2023-03-29T11:35:46.735Z,62.14
2023-03-29T11:36:46.739Z,62.14
2023-03-29T11:37:46.696Z,63.77
2023-03-29T11:38:46.729Z,63.33
2023-03-29T11:39:46.693Z,61.51
2023-03-29T11:40:46.700Z,64.45
2023-03-29T11:41:46.679Z,61.60
2023-03-29T11:42:46.655Z,64.04
2023-03-29T11:43:46.629Z,60.99
2023-03-29T11:44:47.047Z,61.91
2023-03-29T11:45:46.632Z,60.46
2023-03-29T11:46:46.639Z,62.08
2023-03-29T11:47:46.657Z,62.59
2023-03-29T11:48:46.595Z,61.98
2023-03-29T11:49:46.568Z,60.86
2023-03-29T11:50:46.589Z,61.37
2023-03-29T11:51:46.548Z,62.08
2023-03-29T11:52:46.563Z,64.73
2023-03-29T11:53:46.543Z,62.66
2023-03-29T11:54:46.521Z,61.34
2023-03-29T11:55:46.496Z,64.18
2023-03-29T11:56:46.580Z,61.95
2023-03-29T11:57:46.485Z,60.60
2023-03-29T11:58:46.483Z,61.01
2023-03-29T11:59:46.480Z,61.72
2023-03-29T12:00:46.463Z,60.91
2023-03-29T12:01:46.478Z,60.50
2023-03-29T12:02:46.576Z,62.02
2023-03-29T12:03:47.340Z,63.65
2023-03-29T12:04:46.392Z,60.40
2023-03-29T12:05:46.441Z,62.13
2023-03-29T12:06:46.374Z,64.67
2023-03-29T12:07:46.394Z,61.72
2023-03-29T12:08:46.381Z,60.98
2023-03-29T12:09:46.364Z,61.90
2023-03-29T12:10:46.341Z,62.81
2023-03-29T12:11:46.369Z,61.79
2023-03-29T12:12:46.320Z,59.97
2023-03-29T12:13:46.325Z,63.32
2023-03-29T12:14:46.286Z,61.90
2023-03-29T12:15:46.305Z,61.69
2023-03-29T12:16:46.312Z,63.89
2023-03-29T12:17:46.326Z,62.57
2023-03-29T12:18:46.266Z,60.75
2023-03-29T12:19:46.258Z,64.00
2023-03-29T12:20:46.297Z,59.74
2023-03-29T12:21:46.262Z,61.56
2023-03-29T12:22:46.207Z,60.31
2023-03-29T12:23:46.272Z,61.33
2023-03-29T12:24:46.219Z,60.93
2023-03-29T12:25:46.236Z,62.34
2023-03-29T12:26:46.160Z,60.52
2023-03-29T12:27:46.160Z,60.82
2023-03-29T12:28:46.161Z,60.21
2023-03-29T12:29:46.146Z,59.30
2023-03-29T12:30:46.119Z,62.04
2023-03-29T12:31:46.189Z,59.78
2023-03-29T12:32:46.134Z,59.48
2023-03-29T12:33:46.192Z,62.52
2023-03-29T12:34:46.077Z,60.59
2023-03-29T12:35:46.099Z,59.68
2023-03-29T12:36:46.054Z,61.60
2023-03-29T12:37:46.087Z,61.40
2023-03-29T12:38:46.146Z,60.69
2023-03-29T12:39:46.087Z,59.88
2023-03-29T12:40:46.009Z,59.99
2023-03-29T12:41:46.055Z,60.06
2023-03-29T12:42:45.986Z,60.36
2023-03-29T12:43:46.021Z,60.66
2023-03-29T12:44:45.974Z,61.07
2023-03-29T12:45:46.032Z,60.63
2023-03-29T12:46:45.992Z,62.05
2023-03-29T12:47:45.961Z,59.83
2023-03-29T12:48:45.924Z,61.04
2023-03-29T12:49:45.944Z,60.84
2023-03-29T12:50:45.916Z,62.05
2023-03-29T12:51:45.919Z,63.27
2023-03-29T12:52:45.902Z,62.56
2023-03-29T12:53:45.877Z,61.07
2023-03-29T12:54:45.884Z,60.97
2023-03-29T12:55:45.878Z,62.29
2023-03-29T12:56:45.896Z,61.85
2023-03-29T12:57:45.842Z,63.50
2023-03-29T12:58:45.839Z,63.07
2023-03-29T12:59:45.825Z,61.55
2023-03-29T13:00:45.866Z,62.66
2023-03-29T13:01:45.917Z,61.24
2023-03-29T13:02:46.052Z,61.35
2023-03-29T13:03:45.791Z,61.55
2023-03-29T13:04:45.762Z,60.23
2023-03-29T13:05:45.866Z,61.95
2023-03-29T13:06:45.736Z,61.95
2023-03-29T13:07:45.763Z,61.95
2023-03-29T13:08:45.712Z,61.35
2023-03-29T13:09:45.716Z,64.18
2023-03-29T13:10:45.684Z,63.27
2023-03-29T13:11:45.728Z,63.20
2023-03-29T13:12:45.671Z,61.78
2023-03-29T13:13:45.752Z,65.02
2023-03-29T13:14:45.641Z,63.50
2023-03-29T13:15:45.721Z,63.30
2023-03-29T13:16:45.629Z,63.20
2023-03-29T13:17:45.709Z,62.59
2023-03-29T13:18:45.623Z,63.70
2023-03-29T13:19:45.598Z,65.62
2023-03-29T13:20:45.577Z,62.49
2023-03-29T13:21:45.599Z,63.60
2023-03-29T13:22:45.567Z,63.20
2023-03-29T13:23:45.560Z,64.11
2023-03-29T13:24:45.587Z,61.78
2023-03-29T13:25:45.542Z,65.83
2023-03-29T13:26:45.522Z,63.70
2023-03-29T13:27:45.521Z,65.32
2023-03-29T13:28:45.486Z,64.41
2023-03-29T13:29:45.522Z,64.51
2023-03-29T13:30:45.482Z,63.20
2023-03-29T13:31:45.520Z,64.51
2023-03-29T13:32:45.502Z,63.30
2023-03-29T13:33:45.450Z,62.69
2023-03-29T13:34:45.451Z,65.22
2023-03-29T13:35:45.461Z,64.51
2023-03-29T13:36:45.413Z,65.66
2023-03-29T13:37:45.414Z,64.85
2023-03-29T13:38:45.385Z,64.54
2023-03-29T13:39:45.380Z,64.95
2023-03-29T13:40:45.374Z,65.15
2023-03-29T13:41:45.368Z,65.76
2023-03-29T13:42:46.787Z,65.56
2023-03-29T13:43:45.341Z,64.85
2023-03-29T13:44:45.346Z,63.23
2023-03-29T13:45:45.323Z,64.75
2023-03-29T13:46:45.433Z,63.83
2023-03-29T13:47:58.345Z,65.36
2023-03-29T13:48:45.278Z,64.95
2023-03-29T13:49:45.277Z,64.34
2023-03-29T13:50:45.246Z,66.33
2023-03-29T13:51:45.303Z,62.79
2023-03-29T13:52:45.300Z,63.81
2023-03-29T13:53:45.237Z,65.02
2023-03-29T13:54:45.204Z,63.50
2023-03-29T13:55:45.208Z,63.40
2023-03-29T13:56:45.217Z,64.21
2023-03-29T13:57:45.195Z,62.49
2023-03-29T13:58:45.176Z,61.65
2023-03-29T13:59:45.172Z,62.56
2023-03-29T14:00:45.154Z,62.56
2023-03-29T14:01:45.192Z,61.75
2023-03-29T14:02:47.256Z,61.24
2023-03-29T14:03:45.120Z,61.55
2023-03-29T14:04:45.132Z,61.55
2023-03-29T14:05:45.114Z,62.05
2023-03-29T14:06:45.073Z,62.76
2023-03-29T14:07:45.088Z,60.71
2023-03-29T14:08:45.060Z,61.72
2023-03-29T14:09:45.072Z,63.04
2023-03-29T14:10:45.074Z,60.10
2023-03-29T14:11:45.040Z,60.20
2023-03-29T14:12:45.024Z,62.63
2023-03-29T14:13:45.031Z,60.30
2023-03-29T14:14:57.830Z,60.50
2023-03-29T14:15:44.996Z,60.50
2023-03-29T14:16:45.028Z,60.81
2023-03-29T14:17:45.084Z,61.72
2023-03-29T14:18:45.080Z,62.02
2023-03-29T14:19:44.961Z,61.92
2023-03-29T14:20:44.940Z,61.32
2023-03-29T14:21:44.934Z,60.20
2023-03-29T14:22:44.922Z,60.30
2023-03-29T14:23:44.904Z,59.59
2023-03-29T14:24:44.877Z,60.27
2023-03-29T14:25:44.883Z,59.56
2023-03-29T14:26:44.871Z,61.08
2023-03-29T14:27:44.881Z,62.50
2023-03-29T14:28:44.871Z,60.27
2023-03-29T14:29:44.836Z,60.38
2023-03-29T14:30:44.813Z,61.66
2023-03-29T14:31:44.866Z,62.07
2023-03-29T14:32:44.805Z,60.05
2023-03-29T14:33:44.847Z,62.57
2023-03-29T14:34:44.836Z,59.23
2023-03-29T14:35:44.851Z,60.25
2023-03-29T14:36:44.878Z,59.74
2023-03-29T14:37:44.748Z,58.63
2023-03-29T14:38:44.732Z,60.05
2023-03-29T14:39:44.721Z,59.64
2023-03-29T14:40:44.732Z,61.56
2023-03-29T14:41:44.700Z,60.05
2023-03-29T14:42:44.700Z,57.62
2023-03-29T14:43:44.684Z,59.84
2023-03-29T14:44:44.668Z,59.74
2023-03-29T14:45:44.670Z,61.05
2023-03-29T14:46:44.685Z,59.44
2023-03-29T14:47:44.715Z,59.34
2023-03-29T14:48:44.662Z,60.45
2023-03-29T14:49:44.622Z,64.19
2023-03-29T14:50:44.630Z,60.35
2023-03-29T14:51:44.602Z,60.55
2023-03-29T14:52:46.959Z,60.25
2023-03-29T14:53:44.582Z,59.84
2023-03-29T14:54:44.569Z,62.07
2023-03-29T14:55:44.543Z,62.07
2023-03-29T14:56:44.628Z,58.12
2023-03-29T14:57:44.544Z,58.93
2023-03-29T14:58:44.512Z,58.63
2023-03-29T14:59:44.546Z,59.00
2023-03-29T15:00:44.476Z,58.50
2023-03-29T15:01:44.681Z,57.49
2023-03-29T15:02:44.572Z,58.91
2023-03-29T15:03:44.935Z,58.30
2023-03-29T15:04:44.466Z,59.21
2023-03-29T15:05:44.438Z,58.70
2023-03-29T15:06:44.414Z,61.13
2023-03-29T15:07:44.434Z,59.21
2023-03-29T15:08:54.365Z,58.60
2023-03-29T15:09:44.408Z,58.80
2023-03-29T15:10:45.168Z,58.91
2023-03-29T15:11:44.383Z,57.59
2023-03-29T15:12:44.370Z,59.11
2023-03-29T15:13:44.353Z,57.79
2023-03-29T15:14:44.379Z,59.81
2023-03-29T15:15:44.444Z,61.33
2023-03-29T15:16:44.357Z,60.22
2023-03-29T15:17:51.871Z,60.12
2023-03-29T15:18:44.288Z,57.69
2023-03-29T15:19:44.308Z,57.31
2023-03-29T15:20:44.282Z,61.36
2023-03-29T15:21:44.269Z,57.42
2023-03-29T15:22:44.248Z,58.12
2023-03-29T15:23:44.247Z,58.83
2023-03-29T15:24:44.234Z,59.23
2023-03-29T15:25:44.231Z,58.83
2023-03-29T15:26:44.256Z,58.33
2023-03-29T15:27:44.221Z,59.34
2023-03-29T15:28:44.213Z,57.72
2023-03-29T15:29:44.214Z,59.74
2023-03-29T15:30:46.214Z,58.70
2023-03-29T15:31:44.224Z,56.71
2023-03-29T15:32:44.203Z,56.48
2023-03-29T15:33:44.252Z,57.89
2023-03-29T15:34:44.121Z,57.59
2023-03-29T15:35:44.157Z,58.40
2023-03-29T15:36:44.131Z,58.60
2023-03-29T15:37:44.130Z,58.50
2023-03-29T15:38:45.325Z,57.67
2023-03-29T15:39:44.139Z,57.06
2023-03-29T15:40:44.078Z,61.80
2023-03-29T15:41:44.066Z,59.00
2023-03-29T15:42:44.030Z,57.79
2023-03-29T15:43:44.074Z,59.81
2023-03-29T15:44:44.005Z,59.11
2023-03-29T15:45:45.996Z,58.91
2023-03-29T15:46:44.058Z,61.33
2023-03-29T15:47:44.006Z,57.59
2023-03-29T15:48:43.969Z,59.41
2023-03-29T15:49:44.013Z,56.88
2023-03-29T15:50:43.934Z,56.38
2023-03-29T15:51:43.959Z,57.49
2023-03-29T15:52:43.925Z,58.33
2023-03-29T15:53:43.926Z,59.34
2023-03-29T15:54:43.898Z,57.82
2023-03-29T15:55:43.924Z,57.92
2023-03-29T15:56:43.935Z,60.85
2023-03-29T15:57:44.008Z,58.12
2023-03-29T15:58:43.871Z,60.35
2023-03-29T15:59:43.886Z,59.74
2023-03-29T16:00:43.860Z,59.03
2023-03-29T16:01:43.881Z,58.83
2023-03-29T16:02:43.897Z,57.42
2023-03-29T16:03:45.551Z,58.63
2023-03-29T16:04:43.815Z,58.73
2023-03-29T16:05:43.887Z,57.92
2023-03-29T16:06:43.781Z,61.05
2023-03-29T16:07:43.773Z,59.23
2023-03-29T16:08:43.750Z,58.02
2023-03-29T16:09:43.769Z,59.84
2023-03-29T16:10:43.768Z,58.23
2023-03-29T16:11:43.765Z,59.34
2023-03-29T16:12:43.694Z,58.83
2023-03-29T16:13:43.752Z,61.05
2023-03-29T16:14:43.830Z,60.85
2023-03-29T16:15:43.716Z,59.84
2023-03-29T16:16:43.689Z,60.85
2023-03-29T16:17:43.741Z,57.92
2023-03-29T16:18:43.666Z,59.44
2023-03-29T16:19:43.691Z,59.94
2023-03-29T16:20:43.642Z,59.14
2023-03-29T16:21:43.633Z,59.34
2023-03-29T16:22:43.620Z,59.44
2023-03-29T16:23:43.601Z,61.56
2023-03-29T16:24:43.822Z,59.34
2023-03-29T16:25:43.600Z,61.25
2023-03-29T16:26:43.562Z,60.14
2023-03-29T16:27:43.566Z,59.44
2023-03-29T16:28:43.579Z,59.54
2023-03-29T16:29:43.516Z,60.88
2023-03-29T16:30:43.521Z,59.67
2023-03-29T16:31:43.556Z,59.67
2023-03-29T16:32:43.572Z,61.19
2023-03-29T16:33:43.508Z,61.49
2023-03-29T16:34:43.506Z,60.58
2023-03-29T16:35:43.485Z,62.81
2023-03-29T16:36:43.468Z,63.10
2023-03-29T16:37:43.444Z,61.49
2023-03-29T16:38:43.502Z,61.69
2023-03-29T16:39:43.425Z,63.01
2023-03-29T16:40:43.400Z,61.79
2023-03-29T16:41:43.397Z,64.32
2023-03-29T16:42:43.414Z,62.70
2023-03-29T16:43:43.358Z,62.12
2023-03-29T16:44:43.437Z,63.44
2023-03-29T16:45:43.434Z,62.02
2023-03-29T16:46:43.369Z,63.84
2023-03-29T16:47:43.375Z,62.73
2023-03-29T16:48:43.386Z,63.24
2023-03-29T16:49:45.662Z,62.93
2023-03-29T16:50:43.379Z,62.63
2023-03-29T16:51:43.327Z,65.16
2023-03-29T16:52:43.281Z,66.47
2023-03-29T16:53:43.270Z,62.15
2023-03-29T16:54:43.261Z,64.89
2023-03-29T16:55:43.248Z,64.89
2023-03-29T16:56:43.263Z,63.78
2023-03-29T16:57:43.228Z,65.90
2023-03-29T16:58:43.222Z,64.69
2023-03-29T16:59:43.226Z,64.18
2023-03-29T17:00:45.666Z,67.52
2023-03-29T17:01:43.231Z,63.27
2023-03-29T17:02:43.215Z,63.67
2023-03-29T17:03:43.161Z,65.29
2023-03-29T17:04:43.214Z,64.38
2023-03-29T17:05:43.125Z,63.67
2023-03-29T17:06:43.132Z,64.58
2023-03-29T17:07:43.109Z,63.37
2023-03-29T17:08:43.098Z,64.99
2023-03-29T17:09:43.070Z,65.70
2023-03-29T17:10:43.158Z,63.81
2023-03-29T17:11:43.086Z,64.01
2023-03-29T17:12:43.080Z,64.21
2023-03-29T17:13:43.035Z,64.11
2023-03-29T17:14:43.065Z,63.70
2023-03-29T17:15:43.028Z,64.41
2023-03-29T17:16:43.072Z,64.82
2023-03-29T17:17:43.056Z,65.83
2023-03-29T17:18:42.995Z,64.31
2023-03-29T17:19:42.966Z,64.92
2023-03-29T17:20:42.989Z,64.31
2023-03-29T17:21:42.940Z,69.48
2023-03-29T17:22:43.006Z,64.82